Time;durP1;ratioP1;P1;durP2;ratioP2;P2;SDS_P1;SDS_P2;PMS_P1;PMS_P2;Temp;Humidity;BMP_temperature;BMP_pressure;BME280_temperature;BME280_humidity;BME280_pressure;Samples;Min_cycle;Max_cycle;Signal;HPM_P1;HPM_P2
2023/10/20 00:00:55;;;;;;;;;;;;;;;20.74;28.92;97373.25;4998177;28;909;-78
2023/10/20 00:03:20;;;;;;;;;;;;;;;20.32;29.43;97369.75;5017630;28;1172;-78
2023/10/20 00:05:45;;;;;;;;;;;;;;;20.68;29.13;97373.03;5017547;28;1965;-78
2023/10/20 00:08:11;;;;;;;;;;;;;;;20.39;29.28;97358.19;5017336;28;1174;-77
2023/10/20 00:10:36;;;;;;;;;;;;;;;20.41;29.27;97348.00;5017454;28;912;-78
2023/10/20 00:13:02;;;;;;;;;;;;;;;20.69;29.02;97352.00;5017214;28;961;-78
2023/10/20 00:15:28;;;;;;;;;;;;;;;20.56;29.34;97354.03;5001308;28;979;-78
2023/10/20 00:17:53;;;;;;;;;;;;;;;20.56;29.03;97345.56;5000675;28;951;-78
2023/10/20 00:20:19;;;;;;;;;;;;;;;20.19;29.66;97347.91;5000926;28;967;-78
2023/10/20 00:22:45;;;;;;;;;;;;;;;20.45;29.21;97343.03;5000560;28;938;-78
2023/10/20 00:25:11;;;;;;;;;;;;;;;20.47;29.37;97345.47;5000789;28;1903;-78
2023/10/20 00:27:37;;;;;;;;;;;;;;;20.35;29.62;97337.75;5016776;28;907;-78
2023/10/20 00:30:02;;;;;;;;;;;;;;;20.63;29.09;97341.72;4942442;29;994;-78
2023/10/20 00:32:30;;;;;;;;;;;;;;;20.98;28.59;97339.69;4942959;29;1252;-78
2023/10/20 00:34:57;;;;;;;;;;;;;;;21.20;28.20;97334.91;4942521;29;1344;-77
2023/10/20 00:37:23;;;;;;;;;;;;;;;21.32;28.14;97336.91;4942590;29;916;-77
2023/10/20 00:39:50;;;;;;;;;;;;;;;21.09;28.17;97337.31;4942292;29;1304;-78
2023/10/20 00:42:16;;;;;;;;;;;;;;;20.75;28.89;97326.75;4926350;29;1182;-78
2023/10/20 00:44:42;;;;;;;;;;;;;;;20.66;28.96;97323.84;4958612;29;1973;-77
2023/10/20 00:47:09;;;;;;;;;;;;;;;20.54;29.27;97316.97;4958559;29;913;-78
2023/10/20 00:49:36;;;;;;;;;;;;;;;20.47;29.33;97314.38;4958206;29;967;-78
2023/10/20 00:52:01;;;;;;;;;;;;;;;20.56;29.14;97308.81;4977231;28;1266;-77
2023/10/20 00:54:27;;;;;;;;;;;;;;;20.52;29.41;97319.44;4961247;28;952;-78
2023/10/20 00:56:53;;;;;;;;;;;;;;;20.31;29.62;97320.91;4961439;28;1100;-78
2023/10/20 00:59:18;;;;;;;;;;;;;;;20.63;29.15;97319.09;4961277;28;893;-78
2023/10/20 01:01:44;;;;;;;;;;;;;;;20.32;29.60;97316.06;4992606;28;993;-78
2023/10/20 01:04:10;;;;;;;;;;;;;;;20.48;29.29;97318.78;5000124;28;996;-78
2023/10/20 01:06:36;;;;;;;;;;;;;;;20.71;29.39;97326.09;4999971;28;1991;-77
2023/10/20 01:09:01;;;;;;;;;;;;;;;21.06;28.66;97329.75;4999751;28;996;-78
2023/10/20 01:11:27;;;;;;;;;;;;;;;21.37;27.95;97331.91;5000169;28;1330;-78
2023/10/20 01:13:52;;;;;;;;;;;;;;;21.32;27.94;97336.13;5016317;28;1147;-78
2023/10/20 01:16:18;;;;;;;;;;;;;;;20.95;28.53;97324.44;4999860;28;1068;-78
2023/10/20 01:18:45;;;;;;;;;;;;;;;20.78;28.98;97326.66;5014863;28;1252;-78
2023/10/20 01:21:10;;;;;;;;;;;;;;;20.42;29.52;97320.56;5019673;28;899;-78
2023/10/20 01:23:37;;;;;;;;;;;;;;;20.39;29.31;97315.81;5001769;28;961;-77
2023/10/20 01:26:03;;;;;;;;;;;;;;;20.53;29.32;97306.91;4997344;28;1906;-78
2023/10/20 01:28:29;;;;;;;;;;;;;;;20.42;29.56;97309.28;4997182;28;1722;-79
2023/10/20 01:30:56;;;;;;;;;;;;;;;20.48;29.44;97307.47;5035393;28;953;-78
2023/10/20 01:33:22;;;;;;;;;;;;;;;20.52;29.21;97308.13;5019076;28;1258;-78
2023/10/20 01:35:48;;;;;;;;;;;;;;;20.50;29.38;97311.41;5019030;28;1000;-78
2023/10/20 01:38:13;;;;;;;;;;;;;;;21.14;28.44;97310.47;5019096;28;1100;-78
2023/10/20 01:40:38;;;;;;;;;;;;;;;21.27;27.94;97297.84;5019161;28;1166;-78
2023/10/20 01:43:04;;;;;;;;;;;;;;;21.35;28.19;97306.09;5035213;28;1033;-78
2023/10/20 01:45:29;;;;;;;;;;;;;;;21.32;27.94;97314.25;5018671;28;1910;-78
2023/10/20 01:47:55;;;;;;;;;;;;;;;20.95;28.49;97301.03;5018889;28;981;-78
2023/10/20 01:50:21;;;;;;;;;;;;;;;20.75;28.75;97292.84;5035279;28;1176;-78
2023/10/20 01:52:46;;;;;;;;;;;;;;;20.52;29.02;97296.81;5018689;28;949;-78
2023/10/20 01:55:12;;;;;;;;;;;;;;;20.62;29.09;97295.69;5034915;28;996;-78
2023/10/20 01:57:37;;;;;;;;;;;;;;;20.54;29.00;97294.34;5018687;28;1153;-78
2023/10/20 02:00:05;;;;;;;;;;;;;;;20.58;29.22;97289.38;5018563;28;1299;-78
2023/10/20 02:02:38;;;;;;;;;;;;;;;20.38;29.55;97286.00;4999974;28;1117;-78
2023/10/20 02:05:03;;;;;;;;;;;;;;;20.81;28.95;97285.34;4996635;28;1973;-78
2023/10/20 02:07:29;;;;;;;;;;;;;;;21.37;28.09;97280.97;4996592;28;1176;-78
2023/10/20 02:09:54;;;;;;;;;;;;;;;21.49;28.06;97285.75;4996405;28;860;-78
2023/10/20 02:12:20;;;;;;;;;;;;;;;21.33;27.78;97292.41;4996576;28;1075;-77
2023/10/20 02:14:46;;;;;;;;;;;;;;;20.98;28.43;97294.44;4996181;28;883;-78
2023/10/20 02:17:11;;;;;;;;;;;;;;;20.64;28.93;97287.56;4997009;28;968;-77
2023/10/20 02:19:37;;;;;;;;;;;;;;;20.72;28.83;97291.69;4996743;28;1129;-78
2023/10/20 02:22:02;;;;;;;;;;;;;;;20.40;29.43;97283.50;4996473;28;1136;-77
2023/10/20 02:24:28;;;;;;;;;;;;;;;20.59;28.85;97284.50;4996700;28;846;-78
2023/10/20 02:26:53;;;;;;;;;;;;;;;20.66;28.85;97290.69;4996242;28;1922;-78
2023/10/20 02:29:19;;;;;;;;;;;;;;;20.83;28.79;97293.38;4996541;28;1122;-78
2023/10/20 02:31:44;;;;;;;;;;;;;;;20.51;29.35;97283.94;4996788;28;961;-78
2023/10/20 02:34:11;;;;;;;;;;;;;;;20.33;29.61;97278.88;4996363;28;1141;-78
2023/10/20 02:36:36;;;;;;;;;;;;;;;20.63;29.24;97274.66;4996453;28;929;-78
2023/10/20 02:39:02;;;;;;;;;;;;;;;20.72;28.78;97283.22;4996198;28;981;-78
2023/10/20 02:41:28;;;;;;;;;;;;;;;20.08;29.77;97274.03;4997251;28;815;-78
2023/10/20 02:43:54;;;;;;;;;;;;;;;20.93;28.91;97287.34;4999122;28;1229;-78
2023/10/20 02:46:19;;;;;;;;;;;;;;;21.32;28.15;97285.97;4999445;28;2014;-78
2023/10/20 02:48:45;;;;;;;;;;;;;;;21.43;27.68;97293.28;4999438;28;1166;-79
2023/10/20 02:51:11;;;;;;;;;;;;;;;21.20;28.20;97300.94;5017307;28;1282;-78
2023/10/20 02:53:39;;;;;;;;;;;;;;;20.69;28.85;97289.81;4999192;28;1184;-79
2023/10/20 02:56:12;;;;;;;;;;;;;;;20.62;29.09;97289.25;4999316;28;1069;-79
2023/10/20 02:58:38;;;;;;;;;;;;;;;20.44;29.08;97292.66;4999578;28;1166;-79
2023/10/20 03:01:05;;;;;;;;;;;;;;;20.46;29.10;97292.97;5017105;28;879;-79
2023/10/20 03:03:30;;;;;;;;;;;;;;;20.68;28.94;97293.88;4999280;28;1162;-79
2023/10/20 03:05:56;;;;;;;;;;;;;;;20.56;29.19;97286.19;4998755;28;1906;-79
2023/10/20 03:08:22;;;;;;;;;;;;;;;20.56;29.12;97291.84;5013729;28;1025;-79
2023/10/20 03:10:47;;;;;;;;;;;;;;;20.51;29.27;97295.25;5014558;28;932;-79
2023/10/20 03:13:13;;;;;;;;;;;;;;;20.57;28.86;97287.78;4994111;28;1321;-79
2023/10/20 03:15:40;;;;;;;;;;;;;;;20.83;29.07;97276.41;4965161;28;788;-79
2023/10/20 03:18:05;;;;;;;;;;;;;;;21.17;28.04;97279.22;4998191;28;874;-79
2023/10/20 03:20:32;;;;;;;;;;;;;;;21.53;27.56;97275.09;4966416;28;1211;-79
2023/10/20 03:22:58;;;;;;;;;;;;;;;21.32;27.94;97271.03;4966227;28;1176;-79
2023/10/20 03:25:24;;;;;;;;;;;;;;;20.68;28.66;97271.25;4966261;28;1918;-79
2023/10/20 03:27:49;;;;;;;;;;;;;;;20.72;28.70;97277.56;4982184;28;889;-79
2023/10/20 03:30:15;;;;;;;;;;;;;;;20.38;29.37;97264.19;4962606;28;1212;-79
2023/10/20 03:32:41;;;;;;;;;;;;;;;20.53;28.96;97270.16;4962813;28;878;-79
2023/10/20 03:35:08;;;;;;;;;;;;;;;20.44;29.15;97255.91;4963127;28;1216;-79
2023/10/20 03:37:34;;;;;;;;;;;;;;;20.34;29.25;97262.72;4947029;28;1186;-78
2023/10/20 03:40:00;;;;;;;;;;;;;;;20.62;28.95;97264.59;4964517;28;1518;-78
2023/10/20 03:42:26;;;;;;;;;;;;;;;20.64;28.97;97262.13;4975267;28;1599;-78
2023/10/20 03:44:53;;;;;;;;;;;;;;;20.44;29.11;97261.56;4981916;28;1991;-78
2023/10/20 03:47:19;;;;;;;;;;;;;;;20.44;29.21;97258.72;4982149;28;1818;-78
2023/10/20 03:49:45;;;;;;;;;;;;;;;20.38;29.38;97252.09;4973679;28;1500;-78
2023/10/20 03:52:11;;;;;;;;;;;;;;;20.24;29.37;97242.81;4978663;28;1540;-78
2023/10/20 03:54:38;;;;;;;;;;;;;;;20.45;29.13;97249.00;4975624;28;1514;-78
2023/10/20 03:57:04;;;;;;;;;;;;;;;21.18;28.21;97241.19;4982137;28;1829;-78
2023/10/20 03:59:30;;;;;;;;;;;;;;;21.30;28.10;97243.22;4981367;28;1354;-78
2023/10/20 04:01:56;;;;;;;;;;;;;;;21.25;27.91;97249.44;4994247;28;1433;-78
2023/10/20 04:04:22;;;;;;;;;;;;;;;21.29;27.88;97247.22;4998799;28;1521;-79
2023/10/20 04:06:49;;;;;;;;;;;;;;;20.89;28.46;97247.09;4982341;28;1899;-78
2023/10/20 04:09:17;;;;;;;;;;;;;;;20.58;29.10;97249.03;4982355;28;1592;-79
2023/10/20 04:11:43;;;;;;;;;;;;;;;20.52;29.17;97240.31;4983495;28;1454;-79
2023/10/20 04:14:09;;;;;;;;;;;;;;;20.49;29.06;97241.22;4982053;28;1525;-79
2023/10/20 04:16:39;;;;;;;;;;;;;;;20.90;28.62;97242.25;4999315;28;1140;-78
2023/10/20 04:19:14;;;;;;;;;;;;;;;20.42;29.31;97239.41;4998507;28;1306;-78
2023/10/20 04:21:43;;;;;;;;;;;;;;;20.53;29.14;97236.25;4999219;28;902;-77
2023/10/20 04:24:09;;;;;;;;;;;;;;;20.44;29.05;97238.97;4982962;28;1405;-78
2023/10/20 04:26:35;;;;;;;;;;;;;;;20.99;28.53;97233.84;4997842;28;1967;-79
2023/10/20 04:29:33;;;;;;;;;;;;;;;21.26;28.19;97225.53;4982910;28;1139;-79
2023/10/20 04:46:56;;;;;;;;;;;;;;;20.37;29.55;97233.56;5015255;28;1906;-79
2023/10/20 04:54:10;;;;;;;;;;;;;;;20.66;28.86;97225.69;4984741;28;984;-79
2023/10/20 04:59:22;;;;;;;;;;;;;;;20.59;29.13;97234.44;4996961;28;1001;-79
2023/10/20 05:01:49;;;;;;;;;;;;;;;20.50;29.19;97243.59;4981018;28;951;-78
2023/10/20 05:04:28;;;;;;;;;;;;;;;21.03;28.47;97245.78;4997074;28;1015;-78
2023/10/20 05:07:08;;;;;;;;;;;;;;;21.22;27.94;97246.72;4980674;28;1910;-79
2023/10/20 05:09:40;;;;;;;;;;;;;;;21.31;27.77;97256.09;4980447;28;994;-78
2023/10/20 05:12:06;;;;;;;;;;;;;;;20.80;28.82;97267.59;4980621;28;1262;-78
2023/10/20 05:14:32;;;;;;;;;;;;;;;20.62;29.07;97270.25;4980821;28;911;-79
2023/10/20 05:16:58;;;;;;;;;;;;;;;20.53;28.96;97273.00;4980788;28;1054;-78
2023/10/20 05:19:24;;;;;;;;;;;;;;;20.53;29.04;97275.81;4996609;28;918;-79
2023/10/20 05:21:49;;;;;;;;;;;;;;;20.39;29.30;97270.63;4980587;28;1042;-78
2023/10/20 05:24:14;;;;;;;;;;;;;;;20.53;29.07;97275.81;4980184;28;1017;-78
2023/10/20 05:26:40;;;;;;;;;;;;;;;20.52;29.05;97263.72;4996566;28;1910;-78
2023/10/20 05:29:07;;;;;;;;;;;;;;;20.49;29.12;97269.50;4980148;28;952;-79
2023/10/20 05:31:34;;;;;;;;;;;;;;;20.42;29.58;97275.38;5014129;28;1206;-78
2023/10/20 05:33:59;;;;;;;;;;;;;;;20.60;29.31;97272.75;4995913;28;1567;-78
2023/10/20 05:36:25;;;;;;;;;;;;;;;20.35;29.47;97275.59;4969213;28;1557;-79
2023/10/20 05:38:50;;;;;;;;;;;;;;;20.61;29.21;97271.50;4995368;28;1134;-79
2023/10/20 05:41:16;;;;;;;;;;;;;;;20.61;29.28;97265.84;4984293;28;1333;-78
2023/10/20 05:43:41;;;;;;;;;;;;;;;20.80;28.75;97264.78;4976630;28;1121;-78
2023/10/20 05:46:17;;;;;;;;;;;;;;;20.36;29.38;97260.22;4976709;28;1883;-78
2023/10/20 05:48:43;;;;;;;;;;;;;;;21.03;28.52;97274.84;4976704;28;1214;-78
2023/10/20 05:51:09;;;;;;;;;;;;;;;21.30;28.25;97263.00;4977153;28;1085;-78
2023/10/20 05:53:34;;;;;;;;;;;;;;;21.37;27.87;97269.66;4994050;28;1361;-78
2023/10/20 05:56:00;;;;;;;;;;;;;;;21.46;27.87;97273.34;4987267;28;1269;-78
2023/10/20 05:58:25;;;;;;;;;;;;;;;21.05;28.61;97271.59;4979758;28;1088;-78
2023/10/20 06:00:51;;;;;;;;;;;;;;;20.58;29.25;97272.41;4998387;28;1321;-78
2023/10/20 06:03:18;;;;;;;;;;;;;;;20.43;29.37;97260.78;5015346;28;822;-79
2023/10/20 06:05:44;;;;;;;;;;;;;;;20.62;29.16;97260.97;5014849;28;1906;-79
2023/10/20 06:08:09;;;;;;;;;;;;;;;20.76;28.79;97261.28;5014947;28;1000;-78
2023/10/20 06:10:36;;;;;;;;;;;;;;;20.44;29.64;97267.22;5002567;28;917;-78
2023/10/20 06:13:03;;;;;;;;;;;;;;;20.53;29.38;97261.69;5018351;28;1100;-78
2023/10/20 06:15:29;;;;;;;;;;;;;;;20.62;29.07;97261.75;5018560;28;1132;-78
2023/10/20 06:17:54;;;;;;;;;;;;;;;20.48;29.29;97250.97;5018551;28;968;-78
2023/10/20 06:20:20;;;;;;;;;;;;;;;20.57;29.39;97253.84;5018478;28;1278;-78
2023/10/20 06:22:45;;;;;;;;;;;;;;;20.39;29.66;97248.78;5018392;28;923;-78
2023/10/20 06:25:13;;;;;;;;;;;;;;;21.28;28.43;97262.63;5018718;28;1918;-79
2023/10/20 06:27:39;;;;;;;;;;;;;;;21.24;28.50;97256.34;5018487;28;949;-79
2023/10/20 06:30:14;;;;;;;;;;;;;;;21.32;28.35;97246.34;5004978;28;1406;-78
2023/10/20 06:32:45;;;;;;;;;;;;;;;21.13;28.47;97261.59;5006625;28;1433;-79
2023/10/20 06:35:12;;;;;;;;;;;;;;;20.72;28.93;97257.00;4980908;28;1524;-79
2023/10/20 06:40:17;;;;;;;;;;;;;;;21.00;28.53;97253.16;4999736;28;1430;-78
2023/10/20 06:42:43;;;;;;;;;;;;;;;20.60;29.24;97247.31;5029753;28;1487;-79
2023/10/20 06:45:10;;;;;;;;;;;;;;;20.56;29.21;97246.63;5030164;28;1989;-79
2023/10/20 06:47:35;;;;;;;;;;;;;;;20.74;29.07;97251.69;4998186;28;1506;-78
2023/10/20 06:50:01;;;;;;;;;;;;;;;20.43;29.70;97254.34;4982359;28;1338;-78
2023/10/20 06:52:26;;;;;;;;;;;;;;;20.71;28.96;97252.59;4997436;28;1516;-78
2023/10/20 06:54:56;;;;;;;;;;;;;;;20.66;29.04;97264.47;4999250;28;1511;-79
2023/10/20 06:57:22;;;;;;;;;;;;;;;20.45;29.50;97257.47;4983067;28;1584;-79
2023/10/20 06:59:49;;;;;;;;;;;;;;;20.43;29.80;97248.69;5006387;28;1507;-78
2023/10/20 07:02:14;;;;;;;;;;;;;;;20.28;29.87;97259.66;4985474;28;1587;-78
2023/10/20 07:04:41;;;;;;;;;;;;;;;21.03;28.81;97257.09;4996979;28;1338;-78
2023/10/20 07:07:11;;;;;;;;;;;;;;;21.30;28.33;97254.53;5051014;28;2034;-78
2023/10/20 07:09:37;;;;;;;;;;;;;;;21.43;28.07;97253.66;5018342;28;1652;-78
2023/10/20 07:12:03;;;;;;;;;;;;;;;21.10;28.92;97251.19;5019552;28;1472;-79
2023/10/20 07:14:28;;;;;;;;;;;;;;;20.72;29.33;97254.94;5029926;28;1559;-79
2023/10/20 07:16:54;;;;;;;;;;;;;;;20.73;29.27;97252.94;5029706;28;1479;-79
2023/10/20 07:19:19;;;;;;;;;;;;;;;20.74;29.24;97252.47;5035704;28;1560;-78
2023/10/20 07:21:45;;;;;;;;;;;;;;;20.34;29.90;97262.72;5017506;28;1489;-78
2023/10/20 07:24:10;;;;;;;;;;;;;;;20.40;29.72;97255.22;5052259;28;1581;-78
2023/10/20 07:26:36;;;;;;;;;;;;;;;20.47;29.63;97244.53;5019900;28;1910;-78
2023/10/20 07:29:02;;;;;;;;;;;;;;;20.66;29.68;97251.13;5018462;28;1562;-78
2023/10/20 07:31:27;;;;;;;;;;;;;;;20.83;29.30;97248.94;5043336;28;1507;-78
2023/10/20 07:33:53;;;;;;;;;;;;;;;20.23;30.18;97246.91;5050666;28;1462;-78
2023/10/20 07:36:19;;;;;;;;;;;;;;;20.85;29.73;97245.66;4979410;28;1604;-79
2023/10/20 07:38:45;;;;;;;;;;;;;;;21.47;28.49;97234.50;4994813;28;1599;-78
2023/10/20 07:41:11;;;;;;;;;;;;;;;21.36;28.77;97245.44;4986700;28;1514;-78
2023/10/20 07:43:40;;;;;;;;;;;;;;;21.32;28.87;97237.88;4960116;28;1450;-79
2023/10/20 07:46:05;;;;;;;;;;;;;;;20.92;29.55;97240.50;4991510;28;1902;-78
2023/10/20 07:48:34;;;;;;;;;;;;;;;20.81;29.35;97238.06;4991381;28;1563;-78
2023/10/20 07:50:59;;;;;;;;;;;;;;;20.85;29.16;97245.66;4994313;28;1531;-78
2023/10/20 07:53:25;;;;;;;;;;;;;;;20.95;29.01;97236.78;4946247;28;1681;-78
2023/10/20 07:55:51;;;;;;;;;;;;;;;20.84;29.21;97232.78;4944726;28;1501;-78
2023/10/20 07:58:16;;;;;;;;;;;;;;;20.75;29.68;97228.59;4937679;29;1671;-79
2023/10/20 08:00:42;;;;;;;;;;;;;;;20.67;29.71;97230.09;4933235;29;1506;-78
2023/10/20 08:03:10;;;;;;;;;;;;;;;20.62;29.69;97221.41;4957241;29;1442;-78
2023/10/20 08:05:37;;;;;;;;;;;;;;;20.57;29.82;97213.50;4932037;29;1972;-78
2023/10/20 08:08:04;;;;;;;;;;;;;;;20.64;29.79;97228.19;4926268;29;1499;-78
2023/10/20 08:10:29;;;;;;;;;;;;;;;20.72;29.87;97237.19;4941110;29;1486;-80
2023/10/20 08:12:55;;;;;;;;;;;;;;;20.59;29.83;97231.59;4926150;29;1669;-79
2023/10/20 08:15:20;;;;;;;;;;;;;;;20.54;30.04;97243.47;4956974;28;1572;-78
2023/10/20 08:17:48;;;;;;;;;;;;;;;20.57;30.13;97241.75;4957059;29;1725;-79
2023/10/20 08:20:13;;;;;;;;;;;;;;;20.65;29.63;97232.59;4957909;28;1506;-79
2023/10/20 08:22:39;;;;;;;;;;;;;;;20.60;29.77;97233.19;4976553;28;1560;-79
2023/10/20 08:25:05;;;;;;;;;;;;;;;20.52;29.91;97229.00;4939319;29;1910;-79
2023/10/20 08:27:30;;;;;;;;;;;;;;;20.64;29.89;97227.41;4955450;29;1439;-78
2023/10/20 08:29:57;;;;;;;;;;;;;;;20.58;30.12;97215.91;4942145;29;1501;-79
2023/10/20 08:32:26;;;;;;;;;;;;;;;20.78;29.88;97236.19;4952488;29;1544;-78
2023/10/20 08:34:51;;;;;;;;;;;;;;;21.18;29.23;97218.56;4938587;29;1693;-79
2023/10/20 08:37:17;;;;;;;;;;;;;;;21.50;28.96;97237.22;4973274;28;1495;-79
2023/10/20 08:39:45;;;;;;;;;;;;;;;20.94;29.77;97225.94;4955670;28;1630;-79
2023/10/20 08:42:20;;;;;;;;;;;;;;;21.14;29.35;97217.91;4963719;28;1512;-78
2023/10/20 08:44:46;;;;;;;;;;;;;;;20.88;29.90;97230.56;4953221;28;1489;-78
2023/10/20 08:47:14;;;;;;;;;;;;;;;21.05;29.52;97229.16;4960213;28;1902;-78
2023/10/20 08:49:40;;;;;;;;;;;;;;;20.63;29.90;97223.78;4992212;28;1555;-79
2023/10/20 08:52:08;;;;;;;;;;;;;;;20.74;29.75;97229.84;5002656;28;1471;-79
2023/10/20 08:54:33;;;;;;;;;;;;;;;20.52;30.15;97227.00;4997093;28;1524;-78
2023/10/20 08:56:59;;;;;;;;;;;;;;;20.68;29.84;97231.69;5003737;28;1551;-79
2023/10/20 08:59:24;;;;;;;;;;;;;;;20.68;30.07;97226.03;5018212;28;1536;-78
2023/10/20 09:01:53;;;;;;;;;;;;;;;20.54;30.21;97226.53;5035045;28;1581;-78
2023/10/20 09:04:25;;;;;;;;;;;;;;;20.61;30.41;97240.41;5012421;28;1516;-78
2023/10/20 09:06:52;;;;;;;;;;;;;;;20.93;29.55;97230.78;5003210;28;1976;-79
2023/10/20 09:09:17;;;;;;;;;;;;;;;20.74;29.82;97241.16;4986402;28;1457;-79
2023/10/20 09:11:43;;;;;;;;;;;;;;;20.87;29.69;97243.16;4986888;28;1433;-79
2023/10/20 09:14:09;;;;;;;;;;;;;;;20.62;30.00;97222.19;4987003;28;1485;-78
2023/10/20 09:16:34;;;;;;;;;;;;;;;20.68;30.26;97213.94;4962196;28;1481;-79
2023/10/20 09:19:00;;;;;;;;;;;;;;;20.60;30.29;97212.59;4963113;28;1450;-79
2023/10/20 09:21:28;;;;;;;;;;;;;;;20.45;30.56;97200.97;4979096;28;1565;-79
2023/10/20 09:23:54;;;;;;;;;;;;;;;20.66;29.93;97216.41;4962387;28;1573;-78
2023/10/20 09:26:20;;;;;;;;;;;;;;;20.50;30.31;97220.19;4979335;28;1962;-78
2023/10/20 09:28:48;;;;;;;;;;;;;;;20.67;29.84;97210.31;4987324;28;1513;-79
2023/10/20 09:31:15;;;;;;;;;;;;;;;20.63;30.17;97214.53;4965903;28;1438;-78
2023/10/20 09:33:42;;;;;;;;;;;;;;;20.57;30.19;97211.47;4992329;28;1661;-78
2023/10/20 09:36:07;;;;;;;;;;;;;;;20.58;30.15;97207.41;4977740;28;1524;-78
2023/10/20 09:38:33;;;;;;;;;;;;;;;20.61;30.15;97200.84;4962642;28;1704;-79
2023/10/20 09:41:17;;;;;;;;;;;;;;;21.32;29.69;97201.06;4962920;28;1533;-78
2023/10/20 09:43:52;;;;;;;;;;;;;;;21.51;29.17;97201.19;4961573;28;1633;-78
2023/10/20 09:46:38;;;;;;;;;;;;;;;21.27;29.71;97193.16;4994431;28;1970;-79
2023/10/20 09:49:25;;;;;;;;;;;;;;;21.04;30.16;97185.94;4999908;28;1349;-78
2023/10/20 09:51:51;;;;;;;;;;;;;;;21.00;30.16;97190.16;5000029;28;1515;-78
2023/10/20 09:54:17;;;;;;;;;;;;;;;20.81;30.44;97192.84;4998082;28;1396;-78
2023/10/20 09:56:44;;;;;;;;;;;;;;;20.67;30.78;97201.81;5018444;28;1468;-78
2023/10/20 09:59:12;;;;;;;;;;;;;;;20.92;30.10;97197.31;4987102;28;1473;-78
2023/10/20 10:01:37;;;;;;;;;;;;;;;20.85;30.11;97194.75;4975166;28;1636;-78
2023/10/20 10:04:04;;;;;;;;;;;;;;;20.93;29.79;97184.75;5046146;28;1518;-79
2023/10/20 10:06:36;;;;;;;;;;;;;;;20.97;29.97;97182.59;5045711;28;1910;-78
2023/10/20 10:09:04;;;;;;;;;;;;;;;20.77;30.29;97180.84;5031026;28;1439;-78
2023/10/20 10:11:30;;;;;;;;;;;;;;;20.89;30.16;97189.78;5029023;28;1475;-78
2023/10/20 10:13:58;;;;;;;;;;;;;;;20.50;30.67;97180.63;5034734;28;1629;-78
2023/10/20 10:16:23;;;;;;;;;;;;;;;20.73;29.89;97171.75;5018789;28;1564;-79
2023/10/20 10:18:49;;;;;;;;;;;;;;;20.70;29.99;97167.00;5034566;28;1519;-78
2023/10/20 10:21:40;;;;;;;;;;;;;;;20.45;30.71;97173.50;5036036;28;1642;-78
2023/10/20 10:24:09;;;;;;;;;;;;;;;20.62;30.27;97168.50;4976134;28;1457;-79
2023/10/20 10:26:43;;;;;;;;;;;;;;;20.55;30.37;97166.72;4961935;28;1918;-79
2023/10/20 10:29:09;;;;;;;;;;;;;;;20.41;30.49;97172.03;4978837;28;1461;-78
2023/10/20 10:31:37;;;;;;;;;;;;;;;20.80;30.14;97177.13;4993896;28;1632;-79
2023/10/20 10:34:05;;;;;;;;;;;;;;;20.66;30.11;97165.53;4955805;28;1601;-79
2023/10/20 10:36:41;;;;;;;;;;;;;;;20.65;30.13;97164.75;4972822;28;1553;-78
2023/10/20 10:39:06;;;;;;;;;;;;;;;20.78;29.73;97162.66;4973899;28;1510;-78
2023/10/20 10:41:32;;;;;;;;;;;;;;;20.60;30.35;97170.22;4972601;28;1596;-79
2023/10/20 10:43:58;;;;;;;;;;;;;;;20.80;29.99;97171.47;4958060;28;1478;-78
2023/10/20 10:46:35;;;;;;;;;;;;;;;20.43;30.41;97172.41;4964179;28;1987;-79
2023/10/20 10:49:07;;;;;;;;;;;;;;;20.52;30.15;97170.47;4972306;28;1485;-78
2023/10/20 10:51:32;;;;;;;;;;;;;;;20.76;29.74;97170.03;4956415;28;1590;-79
2023/10/20 10:53:58;;;;;;;;;;;;;;;20.76;29.95;97170.81;4958908;28;1509;-79
2023/10/20 10:56:24;;;;;;;;;;;;;;;20.61;30.29;97164.09;4975041;28;1541;-79
2023/10/20 10:58:50;;;;;;;;;;;;;;;20.43;30.57;97166.75;4958991;28;1565;-79
2023/10/20 11:01:16;;;;;;;;;;;;;;;20.57;30.39;97163.41;4987174;28;1477;-79
2023/10/20 11:03:41;;;;;;;;;;;;;;;20.62;29.97;97165.66;5012532;28;1560;-78
2023/10/20 11:06:07;;;;;;;;;;;;;;;20.75;29.71;97162.78;5010582;28;1922;-78
2023/10/20 11:08:33;;;;;;;;;;;;;;;20.81;30.05;97161.72;5025534;28;1532;-79
2023/10/20 11:10:59;;;;;;;;;;;;;;;20.66;30.15;97160.66;5009494;28;1524;-79
2023/10/20 11:13:24;;;;;;;;;;;;;;;20.60;30.32;97162.50;4976348;28;1560;-78
2023/10/20 11:15:50;;;;;;;;;;;;;;;20.64;29.97;97154.69;4961551;28;1383;-78
2023/10/20 11:18:16;;;;;;;;;;;;;;;20.52;30.21;97161.19;4956848;28;1506;-79
2023/10/20 11:20:41;;;;;;;;;;;;;;;20.92;29.53;97157.72;4942372;29;1775;-79
2023/10/20 11:23:07;;;;;;;;;;;;;;;20.69;29.78;97148.47;4942243;28;1666;-79
2023/10/20 11:25:33;;;;;;;;;;;;;;;20.73;29.86;97143.47;4925454;29;1918;-79
2023/10/20 11:27:58;;;;;;;;;;;;;;;20.62;30.30;97143.03;4942096;29;1454;-79
2023/10/20 11:30:27;;;;;;;;;;;;;;;20.42;30.40;97151.03;4926123;28;1458;-79
2023/10/20 11:32:53;;;;;;;;;;;;;;;21.04;30.23;97151.22;4966335;28;1568;-78
2023/10/20 11:35:21;;;;;;;;;;;;;;;21.51;29.69;97151.03;4944516;28;1568;-78
2023/10/20 11:37:51;;;;;;;;;;;;;;;21.52;30.02;97157.47;4943970;28;1608;-78
2023/10/20 11:40:16;;;;;;;;;;;;;;;21.47;29.85;97158.88;4958696;29;1498;-78
2023/10/20 11:42:42;;;;;;;;;;;;;;;21.23;30.36;97158.56;4961457;28;1406;-78
2023/10/20 11:45:08;;;;;;;;;;;;;;;20.96;30.94;97161.22;4943603;28;1906;-78
2023/10/20 11:47:34;;;;;;;;;;;;;;;21.20;30.44;97153.06;4943578;29;1688;-78
2023/10/20 11:50:00;;;;;;;;;;;;;;;20.81;30.91;97155.28;4959040;29;1525;-78
2023/10/20 11:52:26;;;;;;;;;;;;;;;20.78;30.66;97157.00;4959539;28;1581;-79
2023/10/20 11:54:52;;;;;;;;;;;;;;;21.16;30.04;97158.84;4959003;28;1430;-78
2023/10/20 11:57:18;;;;;;;;;;;;;;;20.86;30.49;97151.88;4967060;28;1506;-78
2023/10/20 11:59:43;;;;;;;;;;;;;;;21.33;29.84;97148.09;4961637;28;1572;-79
2023/10/20 12:02:09;;;;;;;;;;;;;;;21.03;29.96;97149.63;4961412;28;1533;-78
2023/10/20 12:04:35;;;;;;;;;;;;;;;20.62;30.55;97154.34;4940864;29;1496;-78
2023/10/20 12:07:00;;;;;;;;;;;;;;;20.83;30.61;97154.81;4926376;29;1906;-78
2023/10/20 12:09:26;;;;;;;;;;;;;;;21.13;29.75;97153.31;4941793;29;1490;-78
2023/10/20 12:11:52;;;;;;;;;;;;;;;20.89;29.93;97150.97;4925699;29;1551;-79
2023/10/20 12:14:17;;;;;;;;;;;;;;;20.64;30.64;97151.88;4941988;29;1707;-78
2023/10/20 12:16:44;;;;;;;;;;;;;;;20.66;30.59;97146.53;4925070;29;1369;-79
2023/10/20 12:19:11;;;;;;;;;;;;;;;20.90;30.09;97146.88;4939821;29;1538;-78
2023/10/20 12:21:36;;;;;;;;;;;;;;;20.75;30.16;97155.09;4957798;28;1511;-79
2023/10/20 12:24:02;;;;;;;;;;;;;;;20.80;30.27;97148.84;4978084;28;1529;-78
2023/10/20 12:26:27;;;;;;;;;;;;;;;20.94;29.93;97158.06;4965586;28;1898;-78
2023/10/20 12:28:53;;;;;;;;;;;;;;;20.81;30.04;97155.28;4949817;28;1486;-78
2023/10/20 12:31:18;;;;;;;;;;;;;;;20.88;29.94;97159.88;4950403;28;1521;-78
2023/10/20 12:33:44;;;;;;;;;;;;;;;20.50;30.79;97160.84;4948727;28;1501;-79
2023/10/20 12:36:13;;;;;;;;;;;;;;;20.50;30.53;97158.81;4947204;28;1462;-78
2023/10/20 12:38:39;;;;;;;;;;;;;;;20.62;30.55;97168.50;4944554;29;1363;-78
2023/10/20 12:41:05;;;;;;;;;;;;;;;20.58;30.42;97169.88;4970468;28;1604;-79
2023/10/20 12:43:31;;;;;;;;;;;;;;;20.89;30.07;97179.25;4978911;28;1660;-78
2023/10/20 12:45:56;;;;;;;;;;;;;;;20.96;29.94;97173.31;4959657;28;1985;-78
2023/10/20 12:48:22;;;;;;;;;;;;;;;20.78;30.14;97165.50;4978525;28;1512;-78
2023/10/20 12:50:47;;;;;;;;;;;;;;;20.66;30.20;97171.97;4979209;28;1509;-79
2023/10/20 12:53:13;;;;;;;;;;;;;;;20.92;30.06;97183.97;4977584;28;1521;-78
2023/10/20 12:55:39;;;;;;;;;;;;;;;20.93;29.77;97187.56;4960160;28;1507;-78
2023/10/20 12:58:04;;;;;;;;;;;;;;;20.77;29.93;97182.91;4999802;28;1632;-78
2023/10/20 13:00:30;;;;;;;;;;;;;;;21.03;29.66;97194.88;4965928;28;1703;-79
2023/10/20 13:02:56;;;;;;;;;;;;;;;20.92;29.57;97194.50;4979013;28;1405;-78
2023/10/20 13:05:21;;;;;;;;;;;;;;;20.90;29.86;97191.34;4979687;28;1972;-78
2023/10/20 13:07:50;;;;;;;;;;;;;;;20.59;30.12;97197.69;4963129;28;1537;-78
2023/10/20 13:10:16;;;;;;;;;;;;;;;20.50;30.26;97198.38;4956877;29;1617;-78
2023/10/20 13:12:41;;;;;;;;;;;;;;;20.80;29.75;97194.09;4957770;28;1431;-78
2023/10/20 13:15:09;;;;;;;;;;;;;;;20.83;29.90;97191.59;4958137;28;1546;-78
2023/10/20 13:17:35;;;;;;;;;;;;;;;20.67;30.01;97187.69;4957548;28;1667;-78
2023/10/20 13:20:02;;;;;;;;;;;;;;;20.71;30.04;97182.69;4941875;29;2011;-78